Time;durP1;ratioP1;P1;durP2;ratioP2;P2;SDS_P1;SDS_P2;PMS_P1;PMS_P2;Temp;Humidity;BMP_temperature;BMP_pressure;BME280_temperature;BME280_humidity;BME280_pressure;Samples;Min_cycle;Max_cycle;Signal;HPM_P1;HPM_P2
2023/03/08 00:00:24;;;;;;;97.22;36.83;;;;;;;-0.90;100.00;100080.84;5076093;28;20598;-77
2023/03/08 00:02:49;;;;;;;93.07;38.33;;;;;;;-0.89;100.00;100081.69;5076387;28;20528;-77
2023/03/08 00:05:15;;;;;;;106.18;39.63;;;;;;;-0.92;100.00;100077.41;5091722;28;20475;-77
2023/03/08 00:07:41;;;;;;;88.03;36.63;;;;;;;-0.98;100.00;100073.09;5086697;28;20471;-77
2023/03/08 00:10:07;;;;;;;90.10;38.65;;;;;;;-0.91;100.00;100079.13;5075716;28;20035;-76
2023/03/08 00:12:32;;;;;;;88.43;36.90;;;;;;;-0.91;100.00;100081.69;5072744;28;20067;-77
2023/03/08 00:14:57;;;;;;;100.68;39.95;;;;;;;-0.91;100.00;100078.28;5077430;28;20418;-77
2023/03/08 00:17:23;;;;;;;90.78;38.67;;;;;;;-0.91;100.00;100068.91;5068562;28;20539;-78
2023/03/08 00:19:50;;;;;;;87.97;36.50;;;;;;;-1.06;100.00;100048.25;5076806;28;20024;-78
2023/03/08 00:22:16;;;;;;;94.85;37.22;;;;;;;-0.91;100.00;100073.16;5069612;28;20032;-78
2023/03/08 00:24:41;;;;;;;87.70;37.42;;;;;;;-0.91;100.00;100078.28;5076936;28;20029;-77
2023/03/08 00:27:06;;;;;;;96.57;37.33;;;;;;;-0.94;100.00;100089.34;5078617;28;20024;-77
2023/03/08 00:29:31;;;;;;;95.75;38.80;;;;;;;-0.92;100.00;100085.06;5082830;28;20555;-78
2023/03/08 00:31:57;;;;;;;95.25;38.15;;;;;;;-0.97;100.00;100069.69;5077374;28;20028;-78
2023/03/08 00:34:22;;;;;;;89.32;37.28;;;;;;;-0.90;100.00;100080.84;5077415;28;20918;-78
2023/03/08 00:36:47;;;;;;;106.35;38.58;;;;;;;-0.88;100.00;100080.84;5082617;28;20020;-77
2023/03/08 00:39:15;;;;;;;88.68;36.85;;;;;;;-0.88;100.00;100079.16;5083640;28;20027;-77
2023/03/08 00:41:41;;;;;;;100.40;38.78;;;;;;;-0.87;100.00;100078.31;5076734;28;20036;-77
2023/03/08 00:44:06;;;;;;;113.28;38.83;;;;;;;-0.85;100.00;100079.22;5085321;28;20053;-77
2023/03/08 00:46:32;;;;;;;104.38;38.97;;;;;;;-0.83;100.00;100085.19;5072879;28;20562;-78
2023/03/08 00:48:58;;;;;;;110.50;39.15;;;;;;;-0.82;100.00;100076.69;5082372;28;20021;-78
2023/03/08 00:51:23;;;;;;;119.15;40.17;;;;;;;-0.79;100.00;100068.16;5082761;28;20077;-78
2023/03/08 00:53:49;;;;;;;115.70;40.30;;;;;;;-0.78;100.00;100063.06;5085494;28;20040;-78
2023/03/08 00:56:14;;;;;;;120.20;42.08;;;;;;;-0.77;100.00;100074.16;5080410;28;20074;-78
2023/03/08 00:58:40;;;;;;;117.15;40.85;;;;;;;-0.77;100.00;100069.88;5078598;28;20035;-78
2023/03/08 01:01:08;;;;;;;116.57;41.10;;;;;;;-0.74;100.00;100064.81;5085072;28;20048;-77
2023/03/08 01:03:34;;;;;;;118.45;42.40;;;;;;;-0.71;100.00;100069.09;5078120;28;20379;-78
2023/03/08 01:06:06;;;;;;;128.48;41.88;;;;;;;-0.72;100.00;100055.44;5080831;28;20029;-77
2023/03/08 01:08:32;;;;;;;130.93;42.33;;;;;;;-0.72;100.00;100050.34;5076399;28;20095;-78
2023/03/08 01:10:58;;;;;;;150.98;43.75;;;;;;;-0.69;100.00;100046.06;5091927;28;20108;-78
2023/03/08 01:13:25;;;;;;;131.52;41.90;;;;;;;-0.67;100.00;100044.38;5073633;28;20450;-78
2023/03/08 01:15:51;;;;;;;155.25;45.60;;;;;;;-0.64;100.00;100042.72;5083808;28;20024;-78
2023/03/08 01:18:16;;;;;;;124.00;42.95;;;;;;;-0.74;100.00;100018.72;5086241;28;20390;-78
2023/03/08 01:20:42;;;;;;;148.88;43.75;;;;;;;-0.61;100.00;100039.34;5072120;28;20077;-77
2023/03/08 01:23:07;;;;;;;159.13;45.53;;;;;;;-0.59;100.00;100025.69;5070550;28;20020;-78
2023/03/08 01:25:33;;;;;;;148.45;42.92;;;;;;;-0.59;100.00;100023.16;5074249;28;20043;-78
2023/03/08 01:27:58;;;;;;;143.43;44.25;;;;;;;-0.55;100.00;100016.34;5077985;28;20032;-77
2023/03/08 01:30:23;;;;;;;137.40;43.95;;;;;;;-0.58;100.00;100013.75;5070492;28;20036;-78
2023/03/08 01:32:49;;;;;;;157.35;44.40;;;;;;;-0.51;100.00;100011.25;5071544;28;20031;-78
2023/03/08 01:35:14;;;;;;;156.95;44.53;;;;;;;-0.55;100.00;99993.31;5073642;28;20023;-78
2023/03/08 01:37:40;;;;;;;142.75;43.72;;;;;;;-0.51;100.00;100001.00;5068066;28;20024;-77
2023/03/08 01:40:07;;;;;;;155.32;44.42;;;;;;;-0.45;100.00;100001.91;5076285;28;20428;-78
2023/03/08 01:42:32;;;;;;;158.70;44.00;;;;;;;-0.50;100.00;99992.47;5077285;28;20040;-78
2023/03/08 01:45:00;;;;;;;136.20;44.03;;;;;;;-0.42;100.00;99995.09;5087714;28;20058;-78
2023/03/08 01:47:28;;;;;;;181.10;45.35;;;;;;;-0.44;100.00;99991.66;5080165;28;20040;-78
2023/03/08 01:50:03;;;;;;;165.20;45.28;;;;;;;-0.41;100.00;99985.72;5090234;28;20016;-78
2023/03/08 01:52:45;;;;;;;162.00;45.15;;;;;;;-0.39;100.00;99984.91;5072328;28;20025;-78
2023/03/08 01:55:13;;;;;;;177.60;43.63;;;;;;;-0.39;100.00;99984.00;5089072;28;20066;-77
2023/03/08 01:57:45;;;;;;;172.57;44.47;;;;;;;-0.38;100.00;99990.88;5079066;28;20063;-78
2023/03/08 02:00:13;;;;;;;167.18;43.15;;;;;;;-0.38;100.00;99984.03;5085281;28;20126;-78
2023/03/08 02:02:46;;;;;;;180.30;44.53;;;;;;;-0.39;100.00;99984.91;5090149;28;20035;-78
2023/03/08 02:05:13;;;;;;;195.50;46.78;;;;;;;-0.38;100.00;99980.63;5085891;28;20119;-78
2023/03/08 02:07:38;;;;;;;172.38;46.03;;;;;;;-0.40;100.00;99972.06;5090101;28;20024;-78
2023/03/08 02:10:04;;;;;;;205.15;46.63;;;;;;;-0.42;100.00;99969.50;5091224;28;20070;-77
2023/03/08 02:12:30;;;;;;;172.13;44.80;;;;;;;-0.40;100.00;99966.94;5089044;28;20054;-78
2023/03/08 02:14:56;;;;;;;163.73;43.03;;;;;;;-0.37;100.00;99957.56;5094848;28;20027;-78
2023/03/08 02:17:22;;;;;;;163.07;44.15;;;;;;;-0.37;100.00;99955.00;5086472;28;20468;-78
2023/03/08 02:20:07;;;;;;;180.85;45.97;;;;;;;-0.33;100.00;99948.19;5075933;28;20032;-78
2023/03/08 02:22:37;;;;;;;158.50;43.63;;;;;;;-0.35;100.00;99949.91;5073979;28;20286;-78
2023/03/08 02:25:12;;;;;;;154.90;42.50;;;;;;;-0.37;100.00;99938.78;5077108;28;20035;-77
2023/03/08 02:27:37;;;;;;;168.25;41.67;;;;;;;-0.37;100.00;99937.06;5073970;28;20024;-77
2023/03/08 02:30:03;;;;;;;179.68;41.63;;;;;;;-0.33;100.00;99943.97;5078074;28;20024;-78
2023/03/08 02:32:28;;;;;;;161.90;43.03;;;;;;;-0.33;100.00;99937.94;5081222;28;20089;-78
2023/03/08 02:34:53;;;;;;;156.88;43.58;;;;;;;-0.36;100.00;99933.69;5079432;28;20032;-78
2023/03/08 02:37:19;;;;;;;150.93;42.40;;;;;;;-0.33;100.00;99928.59;5083900;28;20500;-77
2023/03/08 02:39:44;;;;;;;151.55;42.38;;;;;;;-0.33;100.00;99923.47;5073244;28;20074;-77
2023/03/08 02:42:09;;;;;;;151.07;43.53;;;;;;;-0.32;100.00;99924.31;5073178;28;20476;-77
2023/03/08 02:44:34;;;;;;;166.98;42.72;;;;;;;-0.33;100.00;99920.91;5071498;28;20494;-78
2023/03/08 02:47:00;;;;;;;147.82;42.95;;;;;;;-0.36;100.00;99920.88;5080295;28;20020;-78
2023/03/08 02:49:25;;;;;;;155.23;41.83;;;;;;;-0.37;100.00;99920.88;5079526;28;20100;-78
2023/03/08 02:51:50;;;;;;;140.48;42.42;;;;;;;-0.41;100.00;99922.56;5088806;28;20029;-78
2023/03/08 02:54:16;;;;;;;139.00;39.45;;;;;;;-0.50;100.00;99907.13;5074687;28;20077;-78
2023/03/08 02:56:41;;;;;;;133.93;39.92;;;;;;;-0.45;100.00;99905.47;5072988;28;20033;-78
2023/03/08 02:59:06;;;;;;;157.48;39.50;;;;;;;-0.43;100.00;99910.56;5076212;28;20033;-78
2023/03/08 03:01:31;;;;;;;141.57;39.92;;;;;;;-0.45;100.00;99918.25;5082731;28;20043;-78
2023/03/08 03:03:57;;;;;;;167.07;41.70;;;;;;;-0.44;100.00;99907.16;5073296;28;20420;-78
2023/03/08 03:06:22;;;;;;;144.98;40.97;;;;;;;-0.50;100.00;99894.31;5091376;28;20043;-78
2023/03/08 03:08:47;;;;;;;129.77;38.97;;;;;;;-0.43;100.00;99900.34;5068777;28;20025;-78
2023/03/08 03:11:19;;;;;;;148.55;39.65;;;;;;;-0.43;100.00;99890.94;5089999;28;20028;-78
2023/03/08 03:13:45;;;;;;;148.27;40.10;;;;;;;-0.44;100.00;99889.25;5078941;28;20032;-78
2023/03/08 03:16:14;;;;;;;149.75;40.53;;;;;;;-0.44;100.00;99890.94;5089738;28;20024;-78
2023/03/08 03:18:39;;;;;;;149.95;40.20;;;;;;;-0.44;100.00;99880.72;5077319;28;20383;-78
2023/03/08 03:21:07;;;;;;;161.75;40.63;;;;;;;-0.43;100.00;99877.28;5082253;28;20035;-78
2023/03/08 03:23:32;;;;;;;161.93;39.17;;;;;;;-0.45;100.00;99882.41;5086137;28;20213;-78
2023/03/08 03:26:07;;;;;;;159.55;41.90;;;;;;;-0.42;100.00;99871.34;5090272;28;20024;-78
2023/03/08 03:28:32;;;;;;;176.15;41.83;;;;;;;-0.43;100.00;99869.59;5060874;28;20046;-78
2023/03/08 03:30:57;;;;;;;170.98;40.78;;;;;;;-0.40;100.00;99861.94;5085109;28;20463;-78
2023/03/08 03:33:23;;;;;;;160.20;40.13;;;;;;;-0.46;100.00;99839.72;5086775;28;20039;-78
2023/03/08 03:35:48;;;;;;;161.88;42.42;;;;;;;-0.39;100.00;99841.47;5078330;28;20039;-78
2023/03/08 03:38:13;;;;;;;160.43;42.22;;;;;;;-0.46;100.00;99829.47;5087365;28;20028;-78
2023/03/08 03:40:39;;;;;;;177.38;42.58;;;;;;;-0.39;100.00;99838.91;5071738;28;20024;-78
2023/03/08 03:43:04;;;;;;;194.32;45.28;;;;;;;-0.41;100.00;99832.06;5078937;28;20078;-78
2023/03/08 03:45:29;;;;;;;170.70;42.22;;;;;;;-0.43;100.00;99832.03;5083502;28;20031;-78
2023/03/08 03:47:55;;;;;;;164.27;42.63;;;;;;;-0.39;100.00;99835.47;5072126;28;20036;-78
2023/03/08 03:50:20;;;;;;;170.75;44.15;;;;;;;-0.40;100.00;99834.63;5071997;28;20048;-78
2023/03/08 03:52:45;;;;;;;167.00;43.70;;;;;;;-0.41;100.00;99837.19;5073977;28;20025;-78
2023/03/08 03:55:10;;;;;;;133.35;39.97;;;;;;;-0.47;100.00;99825.22;5076660;28;20024;-77
2023/03/08 03:57:36;;;;;;;146.07;40.75;;;;;;;-0.42;100.00;99817.56;5071573;28;20054;-78
2023/03/08 04:00:03;;;;;;;138.55;40.15;;;;;;;-0.41;100.00;99827.81;5074232;28;20033;-78
2023/03/08 04:02:29;;;;;;;124.45;38.80;;;;;;;-0.41;100.00;99825.25;5078440;28;20037;-78
2023/03/08 04:04:54;;;;;;;130.77;38.38;;;;;;;-0.49;100.00;99806.44;5071090;28;20533;-78
2023/03/08 04:07:19;;;;;;;130.07;35.92;;;;;;;-0.42;100.00;99803.06;5074650;28;20119;-78
2023/03/08 04:09:46;;;;;;;136.82;37.03;;;;;;;-0.37;100.00;99810.75;5078363;28;20028;-78
2023/03/08 04:12:11;;;;;;;105.03;32.38;;;;;;;-0.36;100.00;99800.53;5072080;28;20031;-78
2023/03/08 04:14:39;;;;;;;103.78;33.58;;;;;;;-0.33;100.00;99804.78;5058502;28;20122;-78
2023/03/08 04:17:04;;;;;;;119.63;34.13;;;;;;;-0.40;100.00;99787.69;5071515;28;20086;-78
2023/03/08 04:19:29;;;;;;;105.70;32.28;;;;;;;-0.32;100.00;99794.56;5073668;28;20467;-78
2023/03/08 04:21:54;;;;;;;118.35;33.13;;;;;;;-0.31;100.00;99786.00;5076148;28;20119;-78
2023/03/08 04:24:20;;;;;;;112.68;32.72;;;;;;;-0.33;100.00;99781.72;5074920;28;20499;-78
2023/03/08 04:26:45;;;;;;;108.55;32.70;;;;;;;-0.33;100.00;99777.47;5079511;28;20028;-78
2023/03/08 04:29:11;;;;;;;96.53;31.40;;;;;;;-0.33;100.00;99769.81;5071747;28;20024;-78
2023/03/08 04:31:36;;;;;;;117.03;32.17;;;;;;;-0.32;100.00;99761.25;5077666;28;20374;-79
2023/03/08 04:34:02;;;;;;;95.45;30.17;;;;;;;-0.29;100.00;99763.84;5085218;28;20112;-79
2023/03/08 04:36:28;;;;;;;97.90;30.15;;;;;;;-0.28;100.00;99764.69;5084965;28;20059;-79
2023/03/08 04:38:53;;;;;;;103.80;33.03;;;;;;;-0.32;100.00;99762.97;5074116;28;20118;-79
2023/03/08 04:41:19;;;;;;;104.93;30.67;;;;;;;-0.29;100.00;99750.19;5077845;28;20024;-79
2023/03/08 04:43:50;;;;;;;105.10;31.08;;;;;;;-0.29;100.00;99750.19;5086822;28;20020;-79
2023/03/08 04:46:16;;;;;;;91.28;30.42;;;;;;;-0.30;100.00;99749.28;5077220;28;20033;-78
2023/03/08 04:48:42;;;;;;;88.22;30.05;;;;;;;-0.35;100.00;99735.63;5073657;28;20028;-78
2023/03/08 04:51:10;;;;;;;92.25;28.55;;;;;;;-0.31;100.00;99739.91;5074693;28;20024;-78
2023/03/08 04:53:35;;;;;;;96.60;28.88;;;;;;;-0.32;100.00;99734.81;5074476;28;20037;-78
2023/03/08 04:56:01;;;;;;;87.00;27.25;;;;;;;-0.32;100.00;99730.53;5075055;28;20059;-79
2023/03/08 04:58:28;;;;;;;85.50;27.17;;;;;;;-0.34;100.00;99729.66;5075486;28;20459;-79
2023/03/08 05:00:54;;;;;;;84.82;26.48;;;;;;;-0.37;100.00;99716.00;5081527;28;20040;-79
2023/03/08 05:03:19;;;;;;;90.55;27.75;;;;;;;-0.34;100.00;99714.28;5081191;28;20029;-78
2023/03/08 05:05:53;;;;;;;77.95;25.42;;;;;;;-0.38;100.00;99696.38;5081664;28;20020;-79
2023/03/08 05:08:19;;;;;;;87.32;26.58;;;;;;;-0.35;100.00;99702.34;5089188;28;20028;-78
2023/03/08 05:10:52;;;;;;;83.25;26.17;;;;;;;-0.34;100.00;99696.38;5077812;28;20486;-79
2023/03/08 05:13:17;;;;;;;76.10;26.45;;;;;;;-0.36;100.00;99698.09;5078528;28;20040;-79
2023/03/08 05:15:43;;;;;;;87.72;27.55;;;;;;;-0.34;100.00;99690.38;5072156;28;20048;-79
2023/03/08 05:18:08;;;;;;;86.55;26.50;;;;;;;-0.35;100.00;99692.09;5076227;28;20107;-79
2023/03/08 05:20:33;;;;;;;78.80;24.88;;;;;;;-0.35;100.00;99684.41;5078978;28;20028;-79
2023/03/08 05:22:59;;;;;;;75.85;25.35;;;;;;;-0.34;100.00;99686.13;5088705;28;20027;-78
2023/03/08 05:25:24;;;;;;;82.60;25.13;;;;;;;-0.33;100.00;99680.16;5080560;28;20032;-79
2023/03/08 05:27:49;;;;;;;91.63;25.92;;;;;;;-0.33;100.00;99687.84;5085353;28;20032;-79
2023/03/08 05:30:15;;;;;;;75.93;24.67;;;;;;;-0.35;100.00;99669.06;5091825;28;20020;-79
2023/03/08 05:32:40;;;;;;;73.88;24.38;;;;;;;-0.34;100.00;99667.34;5080881;28;20032;-79
2023/03/08 05:35:06;;;;;;;71.78;23.15;;;;;;;-0.34;100.00;99663.06;5078007;28;20047;-79
2023/03/08 05:37:31;;;;;;;73.68;23.88;;;;;;;-0.36;100.00;99649.44;5088198;28;20028;-79
2023/03/08 05:39:56;;;;;;;71.03;23.83;;;;;;;-0.43;100.00;99640.00;5084507;28;20028;-79
2023/03/08 05:42:21;;;;;;;66.93;22.65;;;;;;;-0.42;100.00;99636.59;5075475;28;20153;-79
2023/03/08 05:44:47;;;;;;;66.88;21.40;;;;;;;-0.43;100.00;99637.44;5077061;28;20491;-79
2023/03/08 05:47:12;;;;;;;55.65;18.50;;;;;;;-0.51;100.00;99628.91;5086353;28;20028;-79
2023/03/08 05:49:37;;;;;;;53.60;18.25;;;;;;;-0.50;100.00;99631.44;5085014;28;20028;-79
2023/03/08 05:52:03;;;;;;;54.13;17.63;;;;;;;-0.58;100.00;99622.06;5085202;28;20127;-79
2023/03/08 05:54:29;;;;;;;51.38;18.42;;;;;;;-0.63;100.00;99621.19;5073014;28;20036;-78
2023/03/08 05:56:57;;;;;;;42.60;16.10;;;;;;;-0.80;100.00;99596.41;5082251;28;20482;-79
2023/03/08 05:59:22;;;;;;;42.35;15.07;;;;;;;-0.79;100.00;99599.81;5090956;28;20044;-78
2023/03/08 06:01:47;;;;;;;36.40;12.65;;;;;;;-0.82;100.00;99593.00;5076301;28;20098;-78
2023/03/08 06:04:12;;;;;;;31.83;13.15;;;;;;;-0.88;100.00;99592.09;5080971;28;20051;-78
2023/03/08 06:06:38;;;;;;;33.28;13.32;;;;;;;-0.91;100.00;99585.31;5090268;28;20040;-78
2023/03/08 06:09:03;;;;;;;29.75;12.27;;;;;;;-0.93;100.00;99587.00;5081569;28;20021;-78
2023/03/08 06:11:29;;;;;;;33.85;13.35;;;;;;;-0.90;100.00;99601.50;5086660;28;20660;-78
2023/03/08 06:13:54;;;;;;;34.60;12.48;;;;;;;-0.91;100.00;99600.66;5072721;28;20485;-78
2023/03/08 06:16:19;;;;;;;36.25;11.95;;;;;;;-0.95;100.00;99597.22;5078676;28;20032;-78
2023/03/08 06:18:45;;;;;;;31.17;11.68;;;;;;;-1.04;100.00;99576.72;5076375;28;20024;-78
2023/03/08 06:21:15;;;;;;;28.52;10.82;;;;;;;-0.99;100.00;99597.19;5079085;28;20444;-78
2023/03/08 06:23:41;;;;;;;29.90;10.75;;;;;;;-1.02;100.00;99589.50;5067294;28;20038;-77
2023/03/08 06:26:08;;;;;;;30.35;11.30;;;;;;;-1.04;100.00;99589.53;5073358;28;20024;-78
2023/03/08 06:28:34;;;;;;;32.17;11.90;;;;;;;-1.03;100.00;99590.38;5078198;28;20028;-77
2023/03/08 06:31:00;;;;;;;33.58;12.27;;;;;;;-1.03;100.00;99586.09;5081254;28;20028;-78
2023/03/08 06:33:28;;;;;;;37.20;11.43;;;;;;;-1.03;100.00;99585.25;5089988;28;20024;-77
2023/03/08 06:36:03;;;;;;;27.98;10.65;;;;;;;-1.08;100.00;99571.59;5095250;28;20020;-78
2023/03/08 06:38:31;;;;;;;25.73;9.27;;;;;;;-1.09;100.00;99580.97;5071938;28;20081;-77
2023/03/08 06:40:56;;;;;;;27.10;10.05;;;;;;;-1.13;100.00;99576.69;5075515;28;20078;-78
2023/03/08 06:43:23;;;;;;;23.13;8.95;;;;;;;-1.16;100.00;99579.25;5066934;28;20024;-78
2023/03/08 06:45:48;;;;;;;27.05;8.85;;;;;;;-1.17;100.00;99582.66;5085162;28;20039;-78
2023/03/08 06:48:16;;;;;;;23.67;8.30;;;;;;;-1.21;100.00;99566.44;5080300;28;20021;-78
2023/03/08 06:50:42;;;;;;;22.27;8.10;;;;;;;-1.19;100.00;99569.84;5078106;28;20069;-78
2023/03/08 06:53:08;;;;;;;20.13;7.78;;;;;;;-1.19;100.00;99590.31;5079222;28;20036;-78
2023/03/08 06:55:35;;;;;;;19.52;7.75;;;;;;;-1.23;100.00;99582.63;5083220;28;20479;-78
2023/03/08 06:58:00;;;;;;;20.13;8.30;;;;;;;-1.20;100.00;99596.28;5069569;28;20476;-78
2023/03/08 07:00:26;;;;;;;24.95;8.27;;;;;;;-1.21;100.00;99586.91;5073947;28;20040;-78
2023/03/08 07:02:52;;;;;;;19.40;8.40;;;;;;;-1.24;100.00;99581.78;5077048;28;20531;-78
2023/03/08 07:05:17;;;;;;;24.13;7.78;;;;;;;-1.24;100.00;99586.03;5087897;28;20383;-78
2023/03/08 07:07:43;;;;;;;16.27;6.82;;;;;;;-1.23;100.00;99574.97;5088115;28;20063;-79
2023/03/08 07:10:13;;;;;;;19.40;7.38;;;;;;;-1.28;100.00;99572.38;5085419;28;20383;-78
2023/03/08 07:12:42;;;;;;;21.15;6.90;;;;;;;-1.24;100.00;99557.91;5088631;28;20029;-78
2023/03/08 07:15:09;;;;;;;17.15;6.95;;;;;;;-1.23;100.00;99560.47;5079169;28;20494;-78
2023/03/08 07:17:35;;;;;;;16.77;6.53;;;;;;;-1.24;100.00;99561.31;5071939;28;20483;-78
2023/03/08 07:20:04;;;;;;;18.08;6.65;;;;;;;-1.24;100.00;99551.09;5069201;28;20021;-78
2023/03/08 07:22:30;;;;;;;13.80;5.55;;;;;;;-1.23;100.00;99557.06;5071978;28;20120;-81
2023/03/08 07:24:55;;;;;;;19.83;5.43;;;;;;;-1.27;100.00;99551.09;5070385;28;20563;-78
2023/03/08 07:27:21;;;;;;;15.52;5.63;;;;;;;-1.25;100.00;99548.50;5068071;28;20043;-78
2023/03/08 07:29:46;;;;;;;14.32;5.32;;;;;;;-1.32;100.00;99532.28;5069907;28;20115;-77
2023/03/08 07:32:11;;;;;;;14.60;4.95;;;;;;;-1.24;100.00;99534.91;5082793;28;20085;-77
2023/03/08 07:34:36;;;;;;;11.07;4.75;;;;;;;-1.28;100.00;99534.00;5072085;28;20106;-78
2023/03/08 07:37:02;;;;;;;16.38;5.20;;;;;;;-1.24;100.00;99528.09;5064663;28;20031;-78
2023/03/08 07:39:27;;;;;;;13.65;5.65;;;;;;;-1.21;100.00;99532.31;5078626;28;20036;-78
2023/03/08 07:41:52;;;;;;;14.35;5.80;;;;;;;-1.24;100.00;99520.41;5081371;28;20502;-77
2023/03/08 07:44:18;;;;;;;18.38;6.63;;;;;;;-1.23;100.00;99522.09;5088900;28;20056;-77
2023/03/08 07:46:45;;;;;;;18.92;7.07;;;;;;;-1.21;100.00;99522.09;5075116;28;20024;-78
2023/03/08 07:49:10;;;;;;;21.33;7.78;;;;;;;-1.24;100.00;99506.78;5080306;28;20024;-77
2023/03/08 07:51:36;;;;;;;22.30;8.38;;;;;;;-1.19;100.00;99522.97;5092751;28;20141;-78
2023/03/08 07:54:02;;;;;;;24.98;9.20;;;;;;;-1.19;100.00;99518.69;5074275;28;20028;-78
2023/03/08 07:56:28;;;;;;;20.48;8.55;;;;;;;-1.17;100.00;99518.72;5070126;28;20039;-81
2023/03/08 07:58:56;;;;;;;25.35;9.73;;;;;;;-1.16;100.00;99517.00;5075790;28;20016;-77
2023/03/08 08:01:22;;;;;;;27.17;10.38;;;;;;;-1.24;100.00;99492.28;5082546;28;20102;-77
2023/03/08 08:03:48;;;;;;;30.25;10.80;;;;;;;-1.15;100.00;99503.38;5085344;28;20031;-76
2023/03/08 08:06:14;;;;;;;22.20;9.95;;;;;;;-1.15;100.00;99496.53;5078792;28;20024;-77
2023/03/08 08:08:39;;;;;;;32.28;11.27;;;;;;;-1.27;100.00;99482.03;5078942;28;20024;-78
2023/03/08 08:11:15;;;;;;;32.53;12.32;;;;;;;-1.15;100.00;99504.22;5092226;28;20027;-76
2023/03/08 08:13:41;;;;;;;32.72;12.38;;;;;;;-1.15;100.00;99493.97;5092145;28;20024;-76
2023/03/08 08:16:08;;;;;;;31.80;11.52;;;;;;;-1.14;100.00;99503.38;5075220;28;20023;-77
2023/03/08 08:18:34;;;;;;;31.48;12.70;;;;;;;-1.11;100.00;99493.16;5080749;28;20119;-77
2023/03/08 08:21:05;;;;;;;32.83;12.45;;;;;;;-1.06;100.00;99493.16;5077274;28;20107;-77
2023/03/08 08:23:30;;;;;;;29.38;11.93;;;;;;;-1.05;100.00;99484.63;5092582;28;20031;-76
2023/03/08 08:25:56;;;;;;;30.05;13.25;;;;;;;-1.04;100.00;99471.00;5074819;28;20029;-77
2023/03/08 08:28:22;;;;;;;36.72;13.30;;;;;;;-1.05;100.00;99459.91;5092746;28;20035;-77
2023/03/08 08:30:55;;;;;;;37.58;14.18;;;;;;;-1.01;100.00;99466.75;5077586;28;20080;-77
2023/03/08 08:33:21;;;;;;;34.03;13.18;;;;;;;-1.06;100.00;99455.63;5065413;28;20487;-78
2023/03/08 08:35:46;;;;;;;34.63;13.35;;;;;;;-1.04;100.00;99465.91;5074701;28;20024;-77
2023/03/08 08:38:11;;;;;;;33.95;13.88;;;;;;;-1.09;100.00;99444.56;5088500;28;20032;-76
2023/03/08 08:40:37;;;;;;;37.30;14.60;;;;;;;-1.07;100.00;99451.38;5069382;28;20067;-76
2023/03/08 08:43:02;;;;;;;41.22;16.38;;;;;;;-1.07;100.00;99443.72;5088914;28;20039;-77
2023/03/08 08:45:27;;;;;;;32.55;13.50;;;;;;;-1.07;100.00;99451.38;5081512;28;20040;-76
2023/03/08 08:47:53;;;;;;;33.05;12.93;;;;;;;-1.07;100.00;99441.16;5077876;28;20090;-76
2023/03/08 08:50:18;;;;;;;29.95;12.82;;;;;;;-1.04;100.00;99451.41;5074927;28;20035;-76
2023/03/08 08:52:43;;;;;;;34.05;13.35;;;;;;;-1.03;100.00;99455.66;5068352;28;20031;-76
2023/03/08 08:55:09;;;;;;;27.67;11.52;;;;;;;-0.98;100.00;99460.78;5092150;28;20020;-76
2023/03/08 08:57:34;;;;;;;29.55;12.85;;;;;;;-0.94;100.00;99467.59;5066605;28;20428;-76
2023/03/08 08:59:59;;;;;;;33.70;13.35;;;;;;;-0.88;100.00;99470.19;5070967;28;20064;-76
2023/03/08 09:02:24;;;;;;;29.13;12.70;;;;;;;-0.84;100.00;99473.59;5077754;28;20139;-76
2023/03/08 09:04:50;;;;;;;27.27;12.07;;;;;;;-0.90;100.00;99473.56;5086819;28;20118;-76
2023/03/08 09:07:15;;;;;;;34.70;14.77;;;;;;;-0.95;100.00;99479.56;5073851;28;20495;-76
2023/03/08 09:09:40;;;;;;;34.80;14.20;;;;;;;-0.96;100.00;99476.97;5080865;28;20020;-76
2023/03/08 09:12:06;;;;;;;36.45;14.40;;;;;;;-1.00;100.00;99480.38;5089849;28;20046;-76
2023/03/08 09:14:33;;;;;;;33.75;14.02;;;;;;;-1.00;100.00;99459.91;5076399;28;20032;-76
2023/03/08 09:16:58;;;;;;;32.40;13.75;;;;;;;-1.00;100.00;99447.13;5082817;28;20492;-76
2023/03/08 09:19:24;;;;;;;36.45;15.32;;;;;;;-1.02;100.00;99423.25;5089078;28;20063;-76
2023/03/08 09:21:49;;;;;;;40.92;15.77;;;;;;;-0.95;100.00;99417.28;5068126;28;20032;-75
2023/03/08 09:24:15;;;;;;;42.72;17.35;;;;;;;-0.88;100.00;99411.31;5091887;28;20048;-75
2023/03/08 09:26:44;;;;;;;42.95;15.88;;;;;;;-0.81;100.00;99407.91;5089276;28;20379;-76
2023/03/08 09:29:10;;;;;;;41.50;16.98;;;;;;;-0.73;100.00;99406.19;5080319;28;20039;-75
2023/03/08 09:31:37;;;;;;;39.97;15.98;;;;;;;-0.70;100.00;99400.22;5083206;28;20028;-75
2023/03/08 09:34:07;;;;;;;39.65;17.55;;;;;;;-0.74;100.00;99381.44;5087808;28;20534;-75
2023/03/08 09:36:33;;;;;;;37.70;16.05;;;;;;;-0.69;100.00;99391.66;5093207;28;20186;-75
2023/03/08 09:38:58;;;;;;;39.47;16.65;;;;;;;-0.65;100.00;99388.28;5096329;28;20059;-75
2023/03/08 09:41:42;;;;;;;35.28;15.43;;;;;;;-0.62;100.00;99387.41;5088490;28;20048;-76
2023/03/08 09:44:29;;;;;;;33.10;14.30;;;;;;;-0.62;100.00;99384.84;5095719;28;20031;-75
2023/03/08 09:47:03;;;;;;;30.25;13.60;;;;;;;-0.63;100.00;99388.25;5065615;28;20032;-75
2023/03/08 09:49:31;;;;;;;32.45;15.00;;;;;;;-0.60;100.00;99372.91;5075689;28;20035;-75
2023/03/08 09:52:07;;;;;;;40.60;14.73;;;;;;;-0.50;100.00;99362.63;5077919;28;20078;-75
2023/03/08 09:54:37;;;;;;;36.22;15.48;;;;;;;-0.44;100.00;99369.44;5084858;28;20024;-75
2023/03/08 09:57:07;;;;;;;35.03;15.50;;;;;;;-0.40;100.00;99373.69;5079043;28;20108;-76
2023/03/08 09:59:47;;;;;;;39.00;17.10;;;;;;;-0.25;100.00;99373.66;5083202;28;20127;-75
2023/03/08 10:02:37;;;;;;;34.53;15.70;;;;;;;-0.14;100.00;99367.66;5078110;28;20029;-75
2023/03/08 10:05:14;;;;;;;38.05;16.98;;;;;;;0.07;100.00;99357.31;5095179;28;20153;-75
2023/03/08 10:08:04;;;;;;;37.90;16.42;;;;;;;0.36;100.00;99361.44;5075217;28;20024;-76
2023/03/08 10:10:40;;;;;;;41.58;17.75;;;;;;;0.53;100.00;99359.63;5087146;28;20379;-75
2023/03/08 10:13:29;;;;;;;36.97;17.73;;;;;;;0.59;100.00;99354.47;5082380;28;20051;-75
2023/03/08 10:16:11;;;;;;;31.70;15.40;;;;;;;0.63;100.00;99381.78;5079365;28;20534;-75
2023/03/08 10:18:48;;;;;;;41.22;17.75;;;;;;;0.72;100.00;99369.75;5085703;28;20077;-76
2023/03/08 10:21:16;;;;;;;34.88;17.63;;;;;;;0.74;100.00;99366.31;5091523;28;20433;-75
2023/03/08 10:23:44;;;;;;;39.13;20.33;;;;;;;0.77;100.00;99361.16;5062822;28;20078;-76
2023/03/08 10:26:12;;;;;;;41.88;21.90;;;;;;;0.82;100.00;99358.59;5071384;28;20056;-75
2023/03/08 10:28:38;;;;;;;45.80;22.58;;;;;;;0.93;100.00;99356.78;5069188;28;20042;-76
2023/03/08 10:31:20;;;;;;;39.38;21.80;;;;;;;0.87;100.00;99351.69;5076536;28;20028;-76
2023/03/08 10:33:49;;;;;;;39.33;20.83;;;;;;;0.67;100.00;99347.56;5084353;28;20028;-76
2023/03/08 10:36:24;;;;;;;39.88;20.50;;;;;;;0.70;100.00;99360.34;5076344;28;20405;-76
2023/03/08 10:38:57;;;;;;;39.67;21.00;;;;;;;0.74;100.00;99363.75;5087527;28;20047;-76
2023/03/08 10:41:24;;;;;;;48.47;22.70;;;;;;;0.83;100.00;99329.50;5081010;28;20094;-76
2023/03/08 10:43:52;;;;;;;45.75;23.55;;;;;;;0.93;100.00;99328.53;5070683;28;20097;-75
2023/03/08 10:46:19;;;;;;;42.88;23.40;;;;;;;1.07;100.00;99316.44;5073486;28;20090;-75
2023/03/08 10:48:45;;;;;;;34.47;20.02;;;;;;;1.09;100.00;99324.97;5067895;28;20021;-75
2023/03/08 10:51:17;;;;;;;33.60;19.65;;;;;;;1.06;100.00;99325.00;5083122;28;20039;-76
2023/03/08 10:54:01;;;;;;;32.40;19.08;;;;;;;0.95;100.00;99331.97;5080463;28;20476;-76
2023/03/08 10:56:39;;;;;;;34.47;20.38;;;;;;;0.84;100.00;99326.91;5094574;28;20047;-76
2023/03/08 10:59:19;;;;;;;36.05;19.75;;;;;;;0.88;100.00;99332.84;5071066;28;20025;-76
2023/03/08 11:01:50;;;;;;;33.75;19.33;;;;;;;0.88;100.00;99346.56;5071492;28;20025;-75
2023/03/08 11:04:21;;;;;;;35.03;21.00;;;;;;;0.76;100.00;99350.94;5079525;28;20024;-76
2023/03/08 11:06:47;;;;;;;34.15;20.50;;;;;;;0.63;100.00;99353.56;5084384;28;20036;-76